sensor_id;sensor_type;location;lat;lon;timestamp;pressure;altitude;pressure_sealevel;temperature
67509;BMP280;54354;44.724;11.284;2023-08-17T00:01:20;101587.47;;;32.41
67509;BMP280;54354;44.724;11.284;2023-08-17T00:03:46;101585.13;;;32.37
67509;BMP280;54354;44.724;11.284;2023-08-17T00:06:11;101579.22;;;32.33
67509;BMP280;54354;44.724;11.284;2023-08-17T00:08:37;101585.28;;;32.32
67509;BMP280;54354;44.724;11.284;2023-08-17T00:11:02;101582.16;;;32.27
67509;BMP280;54354;44.724;11.284;2023-08-17T00:13:28;101585.97;;;32.24
67509;BMP280;54354;44.724;11.284;2023-08-17T00:15:54;101580.88;;;32.21
67509;BMP280;54354;44.724;11.284;2023-08-17T00:18:19;101577.94;;;32.19
67509;BMP280;54354;44.724;11.284;2023-08-17T00:20:45;101574.28;;;32.16
67509;BMP280;54354;44.724;11.284;2023-08-17T00:23:10;101580.31;;;32.15
67509;BMP280;54354;44.724;11.284;2023-08-17T00:25:36;101571.72;;;32.11
67509;BMP280;54354;44.724;11.284;2023-08-17T00:28:02;101566.25;;;32.11
67509;BMP280;54354;44.724;11.284;2023-08-17T00:30:27;101565.84;;;32.07
67509;BMP280;54354;44.724;11.284;2023-08-17T00:32:53;101569.88;;;32.06
67509;BMP280;54354;44.724;11.284;2023-08-17T00:35:18;101573.19;;;32.04
67509;BMP280;54354;44.724;11.284;2023-08-17T00:37:44;101566.06;;;32.01
67509;BMP280;54354;44.724;11.284;2023-08-17T00:40:10;101572.44;;;31.96
67509;BMP280;54354;44.724;11.284;2023-08-17T00:42:35;101577.53;;;31.92
67509;BMP280;54354;44.724;11.284;2023-08-17T00:45:01;101576.75;;;31.91
67509;BMP280;54354;44.724;11.284;2023-08-17T00:47:28;101581.31;;;31.89
67509;BMP280;54354;44.724;11.284;2023-08-17T00:49:53;101590.13;;;31.87
67509;BMP280;54354;44.724;11.284;2023-08-17T00:52:19;101576.03;;;31.83
67509;BMP280;54354;44.724;11.284;2023-08-17T00:54:45;101581.13;;;31.79
67509;BMP280;54354;44.724;11.284;2023-08-17T00:57:11;101586.44;;;31.77
67509;BMP280;54354;44.724;11.284;2023-08-17T00:59:37;101586.97;;;31.76
67509;BMP280;54354;44.724;11.284;2023-08-17T01:02:03;101580.91;;;31.70
67509;BMP280;54354;44.724;11.284;2023-08-17T01:04:29;101584.94;;;31.69
67509;BMP280;54354;44.724;11.284;2023-08-17T01:06:54;101586.75;;;31.66
67509;BMP280;54354;44.724;11.284;2023-08-17T01:09:20;101580.69;;;31.60
67509;BMP280;54354;44.724;11.284;2023-08-17T01:11:53;101589.81;;;31.55
67509;BMP280;54354;44.724;11.284;2023-08-17T01:14:34;101585.75;;;31.56
67509;BMP280;54354;44.724;11.284;2023-08-17T01:17:11;101585.75;;;31.56
67509;BMP280;54354;44.724;11.284;2023-08-17T01:19:38;101589.59;;;31.53
67509;BMP280;54354;44.724;11.284;2023-08-17T01:22:05;101584.47;;;31.49
67509;BMP280;54354;44.724;11.284;2023-08-17T01:24:31;101584.28;;;31.47
67509;BMP280;54354;44.724;11.284;2023-08-17T01:26:56;101585.56;;;31.46
67509;BMP280;54354;44.724;11.284;2023-08-17T01:29:22;101597.59;;;31.43
67509;BMP280;54354;44.724;11.284;2023-08-17T01:34:48;101586.97;;;31.40
67509;BMP280;54354;44.724;11.284;2023-08-17T01:37:18;101586.41;;;31.34
67509;BMP280;54354;44.724;11.284;2023-08-17T01:39:50;101587.34;;;31.36
67509;BMP280;54354;44.724;11.284;2023-08-17T01:42:17;101594.81;;;31.36
67509;BMP280;54354;44.724;11.284;2023-08-17T01:44:44;101592.03;;;31.28
67509;BMP280;54354;44.724;11.284;2023-08-17T01:47:09;101590.88;;;31.23
67509;BMP280;54354;44.724;11.284;2023-08-17T01:49:36;101583.00;;;31.20
67509;BMP280;54354;44.724;11.284;2023-08-17T01:52:02;101580.13;;;31.18
67509;BMP280;54354;44.724;11.284;2023-08-17T01:54:28;101581.38;;;31.17
67509;BMP280;54354;44.724;11.284;2023-08-17T01:56:55;101581.72;;;31.13
67509;BMP280;54354;44.724;11.284;2023-08-17T01:59:20;101585.91;;;31.14
67509;BMP280;54354;44.724;11.284;2023-08-17T02:01:46;101576.25;;;31.13
67509;BMP280;54354;44.724;11.284;2023-08-17T02:04:11;101582.47;;;31.14
67509;BMP280;54354;44.724;11.284;2023-08-17T02:06:38;101574.06;;;31.12
67509;BMP280;54354;44.724;11.284;2023-08-17T02:09:04;101565.66;;;31.10
67509;BMP280;54354;44.724;11.284;2023-08-17T02:11:29;101568.19;;;31.08
67509;BMP280;54354;44.724;11.284;2023-08-17T02:13:55;101580.59;;;31.09
67509;BMP280;54354;44.724;11.284;2023-08-17T02:16:20;101581.13;;;31.07
67509;BMP280;54354;44.724;11.284;2023-08-17T02:18:46;101583.66;;;31.05
67509;BMP280;54354;44.724;11.284;2023-08-17T02:21:11;101590.22;;;31.02
67509;BMP280;54354;44.724;11.284;2023-08-17T02:23:38;101592.78;;;31.00
67509;BMP280;54354;44.724;11.284;2023-08-17T02:26:04;101597.69;;;31.02
67509;BMP280;54354;44.724;11.284;2023-08-17T02:28:30;101587.31;;;31.00
67509;BMP280;54354;44.724;11.284;2023-08-17T02:30:56;101584.56;;;31.00
67509;BMP280;54354;44.724;11.284;2023-08-17T02:33:22;101592.56;;;30.98
67509;BMP280;54354;44.724;11.284;2023-08-17T02:35:50;101584.88;;;30.97
67509;BMP280;54354;44.724;11.284;2023-08-17T02:38:16;101582.91;;;30.97
67509;BMP280;54354;44.724;11.284;2023-08-17T02:40:41;101577.44;;;30.97
67509;BMP280;54354;44.724;11.284;2023-08-17T02:43:07;101570.47;;;30.96
67509;BMP280;54354;44.724;11.284;2023-08-17T02:45:34;101571.53;;;30.93
67509;BMP280;54354;44.724;11.284;2023-08-17T02:47:59;101575.19;;;30.95
67509;BMP280;54354;44.724;11.284;2023-08-17T02:50:25;101567.72;;;30.96
67509;BMP280;54354;44.724;11.284;2023-08-17T02:52:50;101579.94;;;30.95
67509;BMP280;54354;44.724;11.284;2023-08-17T02:55:16;101572.81;;;30.92
67509;BMP280;54354;44.724;11.284;2023-08-17T02:57:41;101575.00;;;30.93
67509;BMP280;54354;44.724;11.284;2023-08-17T03:00:07;101568.63;;;30.91
67509;BMP280;54354;44.724;11.284;2023-08-17T03:02:33;101586.28;;;30.90
67509;BMP280;54354;44.724;11.284;2023-08-17T03:05:01;101579.16;;;30.87
67509;BMP280;54354;44.724;11.284;2023-08-17T03:07:27;101574.75;;;30.84
67509;BMP280;54354;44.724;11.284;2023-08-17T03:09:52;101572.38;;;30.80
67509;BMP280;54354;44.724;11.284;2023-08-17T03:12:18;101563.94;;;30.78
67509;BMP280;54354;44.724;11.284;2023-08-17T03:14:43;101560.09;;;30.74
67509;BMP280;54354;44.724;11.284;2023-08-17T03:17:09;101563.72;;;30.69
67509;BMP280;54354;44.724;11.284;2023-08-17T03:19:34;101563.09;;;30.63
67509;BMP280;54354;44.724;11.284;2023-08-17T03:22:00;101559.03;;;30.56
67509;BMP280;54354;44.724;11.284;2023-08-17T03:24:26;101554.97;;;30.49
67509;BMP280;54354;44.724;11.284;2023-08-17T03:26:51;101564.75;;;30.45
67509;BMP280;54354;44.724;11.284;2023-08-17T03:29:17;101559.41;;;30.39
67509;BMP280;54354;44.724;11.284;2023-08-17T03:31:42;101563.00;;;30.34
67509;BMP280;54354;44.724;11.284;2023-08-17T03:34:09;101566.63;;;30.29
67509;BMP280;54354;44.724;11.284;2023-08-17T03:36:34;101560.22;;;30.26
67509;BMP280;54354;44.724;11.284;2023-08-17T03:39:00;101558.56;;;30.23
67509;BMP280;54354;44.724;11.284;2023-08-17T03:41:25;101562.84;;;30.19
67509;BMP280;54354;44.724;11.284;2023-08-17T03:43:51;101548.81;;;30.15
67509;BMP280;54354;44.724;11.284;2023-08-17T03:46:16;101554.59;;;30.11
67509;BMP280;54354;44.724;11.284;2023-08-17T03:48:42;101561.84;;;30.09
67509;BMP280;54354;44.724;11.284;2023-08-17T03:51:07;101568.88;;;30.04
67509;BMP280;54354;44.724;11.284;2023-08-17T03:53:33;101590.56;;;30.02
67509;BMP280;54354;44.724;11.284;2023-08-17T03:55:59;101575.03;;;29.97
67509;BMP280;54354;44.724;11.284;2023-08-17T03:58:24;101589.72;;;29.94
67509;BMP280;54354;44.724;11.284;2023-08-17T04:00:52;101588.56;;;29.89
67509;BMP280;54354;44.724;11.284;2023-08-17T04:03:24;101600.25;;;29.90
67509;BMP280;54354;44.724;11.284;2023-08-17T04:05:50;101594.13;;;29.84
67509;BMP280;54354;44.724;11.284;2023-08-17T04:08:15;101597.09;;;29.86
67509;BMP280;54354;44.724;11.284;2023-08-17T04:10:41;101603.81;;;29.85
67509;BMP280;54354;44.724;11.284;2023-08-17T04:13:06;101603.25;;;29.86
67509;BMP280;54354;44.724;11.284;2023-08-17T04:15:32;101602.88;;;29.82
67509;BMP280;54354;44.724;11.284;2023-08-17T04:17:58;101607.28;;;29.85
67509;BMP280;54354;44.724;11.284;2023-08-17T04:20:23;101601.09;;;29.85
67509;BMP280;54354;44.724;11.284;2023-08-17T04:22:50;101598.66;;;29.81
67509;BMP280;54354;44.724;11.284;2023-08-17T04:25:16;101604.88;;;29.82
67509;BMP280;54354;44.724;11.284;2023-08-17T04:27:42;101600.47;;;29.79
67509;BMP280;54354;44.724;11.284;2023-08-17T04:30:09;101584.19;;;29.73
67509;BMP280;54354;44.724;11.284;2023-08-17T04:32:44;101590.78;;;29.78
67509;BMP280;54354;44.724;11.284;2023-08-17T04:35:10;101587.84;;;29.76
67509;BMP280;54354;44.724;11.284;2023-08-17T04:37:36;101587.66;;;29.74
67509;BMP280;54354;44.724;11.284;2023-08-17T04:40:02;101582.91;;;29.74
67509;BMP280;54354;44.724;11.284;2023-08-17T04:42:28;101585.66;;;29.74
67509;BMP280;54354;44.724;11.284;2023-08-17T04:44:54;101584.41;;;29.75
67509;BMP280;54354;44.724;11.284;2023-08-17T04:47:19;101580.19;;;29.74
67509;BMP280;54354;44.724;11.284;2023-08-17T04:49:45;101585.13;;;29.76
67509;BMP280;54354;44.724;11.284;2023-08-17T04:52:10;101581.66;;;29.75
67509;BMP280;54354;44.724;11.284;2023-08-17T04:54:36;101586.59;;;29.77
67509;BMP280;54354;44.724;11.284;2023-08-17T04:57:01;101581.13;;;29.77
67509;BMP280;54354;44.724;11.284;2023-08-17T04:59:28;101590.06;;;29.77
67509;BMP280;54354;44.724;11.284;2023-08-17T05:01:54;101585.31;;;29.78
67509;BMP280;54354;44.724;11.284;2023-08-17T05:04:19;101582.56;;;29.78
67509;BMP280;54354;44.724;11.284;2023-08-17T05:06:45;101580.09;;;29.80
67509;BMP280;54354;44.724;11.284;2023-08-17T05:09:11;101581.88;;;29.77
67509;BMP280;54354;44.724;11.284;2023-08-17T05:11:38;101588.28;;;29.80
67509;BMP280;54354;44.724;11.284;2023-08-17T05:14:04;101590.69;;;29.83
67509;BMP280;54354;44.724;11.284;2023-08-17T05:16:29;101587.44;;;29.85
67509;BMP280;54354;44.724;11.284;2023-08-17T05:18:56;101590.34;;;29.87
67509;BMP280;54354;44.724;11.284;2023-08-17T05:21:23;101587.13;;;29.88
67509;BMP280;54354;44.724;11.284;2023-08-17T05:23:49;101593.72;;;29.93
67509;BMP280;54354;44.724;11.284;2023-08-17T05:26:14;101593.41;;;29.97
67509;BMP280;54354;44.724;11.284;2023-08-17T05:28:40;101588.88;;;29.99
67509;BMP280;54354;44.724;11.284;2023-08-17T05:31:06;101585.38;;;29.99
67509;BMP280;54354;44.724;11.284;2023-08-17T05:33:34;101592.53;;;30.02
67509;BMP280;54354;44.724;11.284;2023-08-17T05:36:00;101600.44;;;30.05
67509;BMP280;54354;44.724;11.284;2023-08-17T05:38:25;101605.56;;;30.09
67509;BMP280;54354;44.724;11.284;2023-08-17T05:40:58;101595.69;;;30.06
67509;BMP280;54354;44.724;11.284;2023-08-17T05:43:24;101598.31;;;30.11
67509;BMP280;54354;44.724;11.284;2023-08-17T05:45:50;101601.44;;;30.15
67509;BMP280;54354;44.724;11.284;2023-08-17T05:48:18;101591.78;;;30.14
67509;BMP280;54354;44.724;11.284;2023-08-17T05:50:44;101598.81;;;30.23
67509;BMP280;54354;44.724;11.284;2023-08-17T05:53:10;101597.53;;;30.24
67509;BMP280;54354;44.724;11.284;2023-08-17T05:55:35;101607.81;;;30.31
67509;BMP280;54354;44.724;11.284;2023-08-17T05:58:01;101603.28;;;30.34
67509;BMP280;54354;44.724;11.284;2023-08-17T06:00:27;101609.91;;;30.38
67509;BMP280;54354;44.724;11.284;2023-08-17T06:02:52;101608.50;;;30.45
67509;BMP280;54354;44.724;11.284;2023-08-17T06:05:23;101600.09;;;30.43
67509;BMP280;54354;44.724;11.284;2023-08-17T06:07:51;101603.13;;;30.52
67509;BMP280;54354;44.724;11.284;2023-08-17T06:10:16;101597.72;;;30.60
67509;BMP280;54354;44.724;11.284;2023-08-17T06:12:42;101592.63;;;30.64
67509;BMP280;54354;44.724;11.284;2023-08-17T06:15:08;101593.78;;;30.69
67509;BMP280;54354;44.724;11.284;2023-08-17T06:17:33;101593.97;;;30.71
67509;BMP280;54354;44.724;11.284;2023-08-17T06:19:59;101597.69;;;30.81
67509;BMP280;54354;44.724;11.284;2023-08-17T06:22:24;101610.53;;;30.86
67509;BMP280;54354;44.724;11.284;2023-08-17T06:24:50;101602.69;;;30.90
67509;BMP280;54354;44.724;11.284;2023-08-17T06:27:15;101600.56;;;30.96
67509;BMP280;54354;44.724;11.284;2023-08-17T06:29:41;101609.38;;;31.02
67509;BMP280;54354;44.724;11.284;2023-08-17T06:32:07;101607.75;;;31.07
67509;BMP280;54354;44.724;11.284;2023-08-17T06:34:33;101605.63;;;31.13
67509;BMP280;54354;44.724;11.284;2023-08-17T06:37:01;101603.28;;;31.17
67509;BMP280;54354;44.724;11.284;2023-08-17T06:39:27;101608.25;;;31.26
67509;BMP280;54354;44.724;11.284;2023-08-17T06:41:53;101605.28;;;31.45
67509;BMP280;54354;44.724;11.284;2023-08-17T06:44:19;101615.28;;;31.78
67509;BMP280;54354;44.724;11.284;2023-08-17T06:46:45;101613.78;;;32.21
67509;BMP280;54354;44.724;11.284;2023-08-17T06:49:11;101614.72;;;32.61
67509;BMP280;54354;44.724;11.284;2023-08-17T06:51:38;101611.03;;;33.05
67509;BMP280;54354;44.724;11.284;2023-08-17T06:54:04;101616.03;;;33.46
67509;BMP280;54354;44.724;11.284;2023-08-17T06:56:30;101621.22;;;33.82
67509;BMP280;54354;44.724;11.284;2023-08-17T06:58:55;101618.44;;;34.15
67509;BMP280;54354;44.724;11.284;2023-08-17T07:01:20;101611.25;;;34.44
67509;BMP280;54354;44.724;11.284;2023-08-17T07:03:46;101617.94;;;34.76
67509;BMP280;54354;44.724;11.284;2023-08-17T07:06:13;101611.97;;;35.04
67509;BMP280;54354;44.724;11.284;2023-08-17T07:08:38;101616.81;;;35.30
67509;BMP280;54354;44.724;11.284;2023-08-17T07:11:04;101628.66;;;35.50
67509;BMP280;54354;44.724;11.284;2023-08-17T07:13:31;101632.84;;;35.68
67509;BMP280;54354;44.724;11.284;2023-08-17T07:15:56;101629.47;;;35.87
67509;BMP280;54354;44.724;11.284;2023-08-17T07:18:22;101626.03;;;36.06
67509;BMP280;54354;44.724;11.284;2023-08-17T07:20:47;101624.47;;;36.22
67509;BMP280;54354;44.724;11.284;2023-08-17T07:23:14;101628.19;;;36.44
67509;BMP280;54354;44.724;11.284;2023-08-17T07:25:40;101616.59;;;36.65
67509;BMP280;54354;44.724;11.284;2023-08-17T07:28:05;101624.28;;;36.85
67509;BMP280;54354;44.724;11.284;2023-08-17T07:30:31;101620.22;;;37.06
67509;BMP280;54354;44.724;11.284;2023-08-17T07:32:57;101624.38;;;37.26
67509;BMP280;54354;44.724;11.284;2023-08-17T07:35:22;101625.09;;;37.46
67509;BMP280;54354;44.724;11.284;2023-08-17T07:37:48;101628.97;;;37.62
67509;BMP280;54354;44.724;11.284;2023-08-17T07:40:14;101636.91;;;37.77
67509;BMP280;54354;44.724;11.284;2023-08-17T07:42:39;101627.94;;;37.88
67509;BMP280;54354;44.724;11.284;2023-08-17T07:45:05;101629.53;;;38.01
67509;BMP280;54354;44.724;11.284;2023-08-17T07:47:34;101623.03;;;38.08
67509;BMP280;54354;44.724;11.284;2023-08-17T07:50:00;101630.31;;;38.13
67509;BMP280;54354;44.724;11.284;2023-08-17T07:52:25;101626.22;;;38.14
67509;BMP280;54354;44.724;11.284;2023-08-17T07:54:51;101626.50;;;38.18
67509;BMP280;54354;44.724;11.284;2023-08-17T07:57:16;101627.00;;;38.26
67509;BMP280;54354;44.724;11.284;2023-08-17T07:59:42;101623.19;;;38.31
67509;BMP280;54354;44.724;11.284;2023-08-17T08:02:07;101627.81;;;38.39
67509;BMP280;54354;44.724;11.284;2023-08-17T08:04:32;101626.03;;;38.43
67509;BMP280;54354;44.724;11.284;2023-08-17T08:06:58;101622.94;;;38.49
67509;BMP280;54354;44.724;11.284;2023-08-17T08:09:23;101626.22;;;38.57
67509;BMP280;54354;44.724;11.284;2023-08-17T08:11:49;101626.47;;;38.61
67509;BMP280;54354;44.724;11.284;2023-08-17T08:14:15;101636.38;;;38.64
67509;BMP280;54354;44.724;11.284;2023-08-17T08:16:40;101632.38;;;38.67
67509;BMP280;54354;44.724;11.284;2023-08-17T08:19:06;101628.44;;;38.70
67509;BMP280;54354;44.724;11.284;2023-08-17T08:21:31;101632.59;;;38.81
67509;BMP280;54354;44.724;11.284;2023-08-17T08:23:57;101635.25;;;38.90
67509;BMP280;54354;44.724;11.284;2023-08-17T08:26:22;101630.81;;;38.97
67509;BMP280;54354;44.724;11.284;2023-08-17T08:28:48;101622.88;;;39.03
67509;BMP280;54354;44.724;11.284;2023-08-17T08:31:13;101620.81;;;39.03
67509;BMP280;54354;44.724;11.284;2023-08-17T08:33:39;101620.09;;;39.03
67509;BMP280;54354;44.724;11.284;2023-08-17T08:36:04;101620.72;;;39.01
67509;BMP280;54354;44.724;11.284;2023-08-17T08:38:31;101629.63;;;39.00
67509;BMP280;54354;44.724;11.284;2023-08-17T08:40:57;101620.19;;;38.93
67509;BMP280;54354;44.724;11.284;2023-08-17T08:43:24;101628.56;;;38.72
67509;BMP280;54354;44.724;11.284;2023-08-17T08:45:51;101619.88;;;38.45
67509;BMP280;54354;44.724;11.284;2023-08-17T08:48:18;101621.09;;;38.20
67509;BMP280;54354;44.724;11.284;2023-08-17T08:50:45;101611.34;;;37.88
67509;BMP280;54354;44.724;11.284;2023-08-17T08:53:14;101615.81;;;37.72
67509;BMP280;54354;44.724;11.284;2023-08-17T08:55:55;101611.78;;;37.64
67509;BMP280;54354;44.724;11.284;2023-08-17T08:58:23;101618.22;;;37.47
67509;BMP280;54354;44.724;11.284;2023-08-17T09:00:50;101624.56;;;37.18
67509;BMP280;54354;44.724;11.284;2023-08-17T09:03:15;101618.59;;;36.93
67509;BMP280;54354;44.724;11.284;2023-08-17T09:05:49;101613.53;;;36.61
67509;BMP280;54354;44.724;11.284;2023-08-17T09:08:15;101611.47;;;36.90
67509;BMP280;54354;44.724;11.284;2023-08-17T09:10:41;101616.13;;;36.39
67509;BMP280;54354;44.724;11.284;2023-08-17T09:13:07;101608.78;;;36.15
67509;BMP280;54354;44.724;11.284;2023-08-17T09:15:34;101623.84;;;36.04
67509;BMP280;54354;44.724;11.284;2023-08-17T09:18:00;101615.59;;;36.04
67509;BMP280;54354;44.724;11.284;2023-08-17T09:20:43;101607.41;;;35.87
67509;BMP280;54354;44.724;11.284;2023-08-17T09:23:18;101596.13;;;35.66
67509;BMP280;54354;44.724;11.284;2023-08-17T09:25:45;101595.44;;;35.48
67509;BMP280;54354;44.724;11.284;2023-08-17T09:28:13;101602.78;;;35.36
67509;BMP280;54354;44.724;11.284;2023-08-17T09:33:21;101599.56;;;35.13
67509;BMP280;54354;44.724;11.284;2023-08-17T09:35:48;101595.53;;;35.14
67509;BMP280;54354;44.724;11.284;2023-08-17T09:38:14;101597.78;;;35.25
67509;BMP280;54354;44.724;11.284;2023-08-17T09:40:40;101600.19;;;35.38
67509;BMP280;54354;44.724;11.284;2023-08-17T09:43:05;101600.47;;;35.42
67509;BMP280;54354;44.724;11.284;2023-08-17T09:45:31;101594.09;;;35.39
67509;BMP280;54354;44.724;11.284;2023-08-17T09:48:00;101586.19;;;35.26
67509;BMP280;54354;44.724;11.284;2023-08-17T09:50:26;101591.03;;;35.35
67509;BMP280;54354;44.724;11.284;2023-08-17T09:52:55;101585.22;;;35.31
67509;BMP280;54354;44.724;11.284;2023-08-17T09:55:23;101578.25;;;35.30
67509;BMP280;54354;44.724;11.284;2023-08-17T09:57:50;101595.00;;;35.25
67509;BMP280;54354;44.724;11.284;2023-08-17T10:00:17;101584.66;;;35.16
67509;BMP280;54354;44.724;11.284;2023-08-17T10:02:50;101580.88;;;35.11
67509;BMP280;54354;44.724;11.284;2023-08-17T10:05:18;101574.06;;;35.12
67509;BMP280;54354;44.724;11.284;2023-08-17T10:07:47;101571.16;;;35.10
67509;BMP280;54354;44.724;11.284;2023-08-17T10:10:18;101578.72;;;35.10
67509;BMP280;54354;44.724;11.284;2023-08-17T10:12:49;101573.00;;;35.07
67509;BMP280;54354;44.724;11.284;2023-08-17T10:15:19;101575.59;;;35.05
67509;BMP280;54354;44.724;11.284;2023-08-17T10:18:10;101577.63;;;35.05
67509;BMP280;54354;44.724;11.284;2023-08-17T10:20:41;101569.53;;;34.90
67509;BMP280;54354;44.724;11.284;2023-08-17T10:23:18;101571.00;;;34.73
67509;BMP280;54354;44.724;11.284;2023-08-17T10:25:45;101567.50;;;34.73
67509;BMP280;54354;44.724;11.284;2023-08-17T10:28:13;101570.31;;;34.83
67509;BMP280;54354;44.724;11.284;2023-08-17T10:30:39;101559.09;;;34.88
67509;BMP280;54354;44.724;11.284;2023-08-17T10:33:05;101548.97;;;34.91
67509;BMP280;54354;44.724;11.284;2023-08-17T10:35:32;101557.16;;;34.98
67509;BMP280;54354;44.724;11.284;2023-08-17T10:37:59;101561.59;;;35.11
67509;BMP280;54354;44.724;11.284;2023-08-17T10:40:28;101563.84;;;35.22
67509;BMP280;54354;44.724;11.284;2023-08-17T10:42:56;101550.97;;;35.25
67509;BMP280;54354;44.724;11.284;2023-08-17T10:45:28;101551.75;;;35.18
67509;BMP280;54354;44.724;11.284;2023-08-17T10:50:58;101544.38;;;35.20
67509;BMP280;54354;44.724;11.284;2023-08-17T10:53:24;101552.28;;;35.06
67509;BMP280;54354;44.724;11.284;2023-08-17T10:55:50;101547.84;;;34.94
67509;BMP280;54354;44.724;11.284;2023-08-17T10:58:21;101549.69;;;34.91
67509;BMP280;54354;44.724;11.284;2023-08-17T11:00:47;101550.91;;;34.98
67509;BMP280;54354;44.724;11.284;2023-08-17T11:03:20;101537.22;;;35.07
67509;BMP280;54354;44.724;11.284;2023-08-17T11:05:48;101531.94;;;35.19
67509;BMP280;54354;44.724;11.284;2023-08-17T11:08:28;101536.94;;;35.30
67509;BMP280;54354;44.724;11.284;2023-08-17T11:11:05;101522.53;;;35.22
67509;BMP280;54354;44.724;11.284;2023-08-17T11:13:32;101527.25;;;35.12
67509;BMP280;54354;44.724;11.284;2023-08-17T11:15:59;101519.81;;;35.05
67509;BMP280;54354;44.724;11.284;2023-08-17T11:18:25;101530.41;;;35.08
67509;BMP280;54354;44.724;11.284;2023-08-17T11:20:51;101521.91;;;35.14
67509;BMP280;54354;44.724;11.284;2023-08-17T11:23:17;101521.75;;;35.12
67509;BMP280;54354;44.724;11.284;2023-08-17T11:25:43;101519.81;;;35.05
67509;BMP280;54354;44.724;11.284;2023-08-17T11:28:09;101517.88;;;34.98
67509;BMP280;54354;44.724;11.284;2023-08-17T11:30:35;101510.28;;;34.89
67509;BMP280;54354;44.724;11.284;2023-08-17T11:33:04;101505.09;;;34.93
67509;BMP280;54354;44.724;11.284;2023-08-17T11:35:30;101495.78;;;34.88
67509;BMP280;54354;44.724;11.284;2023-08-17T11:37:56;101489.72;;;34.90
67509;BMP280;54354;44.724;11.284;2023-08-17T11:40:21;101490.69;;;35.02
67509;BMP280;54354;44.724;11.284;2023-08-17T11:42:48;101494.31;;;35.04
67509;BMP280;54354;44.724;11.284;2023-08-17T11:45:14;101484.34;;;35.09
67509;BMP280;54354;44.724;11.284;2023-08-17T11:47:40;101486.53;;;35.11
67509;BMP280;54354;44.724;11.284;2023-08-17T11:50:11;101486.06;;;35.04
67509;BMP280;54354;44.724;11.284;2023-08-17T11:52:37;101487.34;;;35.03
67509;BMP280;54354;44.724;11.284;2023-08-17T11:55:04;101487.34;;;35.03
67509;BMP280;54354;44.724;11.284;2023-08-17T11:57:31;101485.72;;;35.00
67509;BMP280;54354;44.724;11.284;2023-08-17T11:59:58;101477.84;;;34.87
67509;BMP280;54354;44.724;11.284;2023-08-17T12:02:25;101479.31;;;34.71
67509;BMP280;54354;44.724;11.284;2023-08-17T12:04:51;101480.06;;;34.54
67509;BMP280;54354;44.724;11.284;2023-08-17T12:07:18;101477.59;;;34.41
67509;BMP280;54354;44.724;11.284;2023-08-17T12:09:45;101477.09;;;34.35
67509;BMP280;54354;44.724;11.284;2023-08-17T12:12:12;101476.47;;;34.44
67509;BMP280;54354;44.724;11.284;2023-08-17T12:14:41;101481.84;;;34.42
67509;BMP280;54354;44.724;11.284;2023-08-17T12:17:14;101471.97;;;34.39
67509;BMP280;54354;44.724;11.284;2023-08-17T12:19:40;101465.88;;;34.41
67509;BMP280;54354;44.724;11.284;2023-08-17T12:22:06;101469.44;;;34.33
67509;BMP280;54354;44.724;11.284;2023-08-17T12:24:31;101461.97;;;34.26
67509;BMP280;54354;44.724;11.284;2023-08-17T12:26:57;101464.91;;;34.28
67509;BMP280;54354;44.724;11.284;2023-08-17T12:29:24;101469.59;;;34.35
67509;BMP280;54354;44.724;11.284;2023-08-17T12:31:51;101454.06;;;34.30
67509;BMP280;54354;44.724;11.284;2023-08-17T12:34:17;101461.75;;;34.32
67509;BMP280;54354;44.724;11.284;2023-08-17T12:36:44;101467.66;;;34.28
67509;BMP280;54354;44.724;11.284;2023-08-17T12:39:09;101469.84;;;34.30
67509;BMP280;54354;44.724;11.284;2023-08-17T12:41:35;101457.72;;;34.33
67509;BMP280;54354;44.724;11.284;2023-08-17T12:44:01;101453.84;;;34.36
67509;BMP280;54354;44.724;11.284;2023-08-17T12:46:27;101453.97;;;34.38
67509;BMP280;54354;44.724;11.284;2023-08-17T12:48:52;101448.63;;;34.40
67509;BMP280;54354;44.724;11.284;2023-08-17T12:51:18;101445.88;;;34.40
67509;BMP280;54354;44.724;11.284;2023-08-17T12:53:44;101441.34;;;34.35
67509;BMP280;54354;44.724;11.284;2023-08-17T12:56:09;101439.75;;;34.32
67509;BMP280;54354;44.724;11.284;2023-08-17T12:58:35;101443.78;;;34.31
67509;BMP280;54354;44.724;11.284;2023-08-17T13:01:02;101438.47;;;34.33
67509;BMP280;54354;44.724;11.284;2023-08-17T13:03:27;101434.72;;;34.38
67509;BMP280;54354;44.724;11.284;2023-08-17T13:05:53;101441.47;;;34.45
67509;BMP280;54354;44.724;11.284;2023-08-17T13:08:19;101443.06;;;34.48
67509;BMP280;54354;44.724;11.284;2023-08-17T13:10:45;101434.72;;;34.55
67509;BMP280;54354;44.724;11.284;2023-08-17T13:13:10;101433.34;;;34.64
67509;BMP280;54354;44.724;11.284;2023-08-17T13:15:36;101432.53;;;34.71
67509;BMP280;54354;44.724;11.284;2023-08-17T13:18:01;101428.06;;;34.76
67509;BMP280;54354;44.724;11.284;2023-08-17T13:20:27;101433.88;;;34.80
67509;BMP280;54354;44.724;11.284;2023-08-17T13:22:53;101421.72;;;34.83
67509;BMP280;54354;44.724;11.284;2023-08-17T13:25:18;101416.06;;;34.81
67509;BMP280;54354;44.724;11.284;2023-08-17T13:27:44;101413.31;;;34.81
67509;BMP280;54354;44.724;11.284;2023-08-17T13:30:09;101406.53;;;34.82
67509;BMP280;54354;44.724;11.284;2023-08-17T13:32:35;101401.91;;;34.84
67509;BMP280;54354;44.724;11.284;2023-08-17T13:35:02;101398.56;;;34.86
67509;BMP280;54354;44.724;11.284;2023-08-17T13:37:28;101399.44;;;34.88
67509;BMP280;54354;44.724;11.284;2023-08-17T13:39:53;101392.06;;;34.91
67509;BMP280;54354;44.724;11.284;2023-08-17T13:42:19;101384.88;;;34.95
67509;BMP280;54354;44.724;11.284;2023-08-17T13:44:45;101399.66;;;35.00
67509;BMP280;54354;44.724;11.284;2023-08-17T13:47:11;101394.88;;;35.00
67509;BMP280;54354;44.724;11.284;2023-08-17T13:49:37;101403.28;;;35.02